sensor_id;sensor_type;location;lat;lon;timestamp;pressure;altitude;pressure_sealevel;temperature;humidity
16694;BME280;39538;52.196;9.892;2022-09-27T00:01:03;98339.19;;;9.29;100.00
16694;BME280;39538;52.196;9.892;2022-09-27T00:03:30;98337.25;;;9.31;100.00
16694;BME280;39538;52.196;9.892;2022-09-27T00:06:02;98335.59;;;9.30;100.00
16694;BME280;39538;52.196;9.892;2022-09-27T00:08:30;98337.38;;;9.29;100.00
16694;BME280;39538;52.196;9.892;2022-09-27T00:10:58;98325.00;;;9.30;100.00
16694;BME280;39538;52.196;9.892;2022-09-27T00:13:26;98330.81;;;9.34;100.00
16694;BME280;39538;52.196;9.892;2022-09-27T00:15:55;98333.44;;;9.34;100.00
16694;BME280;39538;52.196;9.892;2022-09-27T00:18:21;98325.88;;;9.39;100.00
16694;BME280;39538;52.196;9.892;2022-09-27T00:20:48;98324.72;;;9.41;100.00
16694;BME280;39538;52.196;9.892;2022-09-27T00:23:14;98319.75;;;9.38;100.00
16694;BME280;39538;52.196;9.892;2022-09-27T00:25:41;98318.94;;;9.38;100.00
16694;BME280;39538;52.196;9.892;2022-09-27T00:28:07;98317.63;;;9.42;100.00
16694;BME280;39538;52.196;9.892;2022-09-27T00:30:40;98315.63;;;9.44;100.00
16694;BME280;39538;52.196;9.892;2022-09-27T00:33:06;98309.69;;;9.42;100.00
16694;BME280;39538;52.196;9.892;2022-09-27T00:35:33;98315.63;;;9.44;100.00
16694;BME280;39538;52.196;9.892;2022-09-27T00:37:59;98312.03;;;9.45;100.00
16694;BME280;39538;52.196;9.892;2022-09-27T00:40:26;98316.19;;;9.47;100.00
16694;BME280;39538;52.196;9.892;2022-09-27T00:42:52;98314.34;;;9.48;100.00
16694;BME280;39538;52.196;9.892;2022-09-27T00:45:19;98309.38;;;9.45;100.00
16694;BME280;39538;52.196;9.892;2022-09-27T00:47:50;98306.72;;;9.45;100.00
16694;BME280;39538;52.196;9.892;2022-09-27T00:50:26;98301.78;;;9.50;100.00
16694;BME280;39538;52.196;9.892;2022-09-27T00:53:09;98301.78;;;9.50;100.00
16694;BME280;39538;52.196;9.892;2022-09-27T00:55:39;98291.88;;;9.52;100.00
16694;BME280;39538;52.196;9.892;2022-09-27T00:58:08;98294.75;;;9.59;100.00
16694;BME280;39538;52.196;9.892;2022-09-27T01:00:40;98288.44;;;9.60;100.00
16694;BME280;39538;52.196;9.892;2022-09-27T01:03:13;98287.28;;;9.62;100.00
16694;BME280;39538;52.196;9.892;2022-09-27T01:05:45;98296.22;;;9.61;100.00
16694;BME280;39538;52.196;9.892;2022-09-27T01:08:11;98297.28;;;9.68;100.00
16694;BME280;39538;52.196;9.892;2022-09-27T01:10:42;98294.00;;;9.75;100.00
16694;BME280;39538;52.196;9.892;2022-09-27T01:13:18;98293.16;;;9.74;100.00
16694;BME280;39538;52.196;9.892;2022-09-27T01:15:49;98285.66;;;9.69;100.00
16694;BME280;39538;52.196;9.892;2022-09-27T01:18:29;98281.91;;;9.72;100.00
16694;BME280;39538;52.196;9.892;2022-09-27T01:21:21;98280.91;;;9.73;100.00
16694;BME280;39538;52.196;9.892;2022-09-27T01:24:26;98279.59;;;9.77;100.00
16694;BME280;39538;52.196;9.892;2022-09-27T01:30:20;98278.78;;;9.77;100.00
16694;BME280;39538;52.196;9.892;2022-09-27T01:32:50;98280.75;;;9.75;100.00
16694;BME280;39538;52.196;9.892;2022-09-27T01:35:24;98288.53;;;9.76;100.00
16694;BME280;39538;52.196;9.892;2022-09-27T01:38:01;98275.97;;;9.78;100.00
16694;BME280;39538;52.196;9.892;2022-09-27T01:40:38;98271.19;;;9.82;100.00
16694;BME280;39538;52.196;9.892;2022-09-27T01:43:09;98266.84;;;9.81;100.00
16694;BME280;39538;52.196;9.892;2022-09-27T01:45:42;98272.50;;;9.86;100.00
16694;BME280;39538;52.196;9.892;2022-09-27T01:48:15;98262.44;;;9.89;100.00
16694;BME280;39538;52.196;9.892;2022-09-27T01:50:45;98266.56;;;9.84;100.00
16694;BME280;39538;52.196;9.892;2022-09-27T01:53:17;98264.75;;;9.84;100.00
16694;BME280;39538;52.196;9.892;2022-09-27T01:55:47;98267.53;;;9.83;100.00
16694;BME280;39538;52.196;9.892;2022-09-27T01:58:17;98260.41;;;9.83;100.00
16694;BME280;39538;52.196;9.892;2022-09-27T02:00:50;98269.72;;;9.87;100.00
16694;BME280;39538;52.196;9.892;2022-09-27T02:03:20;98262.97;;;9.93;100.00
16694;BME280;39538;52.196;9.892;2022-09-27T02:05:50;98262.22;;;9.83;100.00
16694;BME280;39538;52.196;9.892;2022-09-27T02:08:24;98263.91;;;9.84;100.00
16694;BME280;39538;52.196;9.892;2022-09-27T02:10:53;98261.75;;;9.87;100.00
16694;BME280;39538;52.196;9.892;2022-09-27T02:13:23;98249.34;;;9.88;100.00
16694;BME280;39538;52.196;9.892;2022-09-27T02:15:57;98254.81;;;9.86;100.00
16694;BME280;39538;52.196;9.892;2022-09-27T02:18:31;98247.69;;;9.87;100.00
16694;BME280;39538;52.196;9.892;2022-09-27T02:21:01;98249.66;;;9.85;100.00
16694;BME280;39538;52.196;9.892;2022-09-27T02:23:34;98250.00;;;9.82;100.00
16694;BME280;39538;52.196;9.892;2022-09-27T02:26:04;98253.47;;;9.90;100.00
16694;BME280;39538;52.196;9.892;2022-09-27T02:28:39;98250.19;;;9.88;100.00
16694;BME280;39538;52.196;9.892;2022-09-27T02:31:10;98245.19;;;9.85;100.00
16694;BME280;39538;52.196;9.892;2022-09-27T02:33:40;98244.50;;;9.83;100.00
16694;BME280;39538;52.196;9.892;2022-09-27T02:36:08;98246.69;;;9.88;100.00
16694;BME280;39538;52.196;9.892;2022-09-27T02:38:34;98247.16;;;9.83;100.00
16694;BME280;39538;52.196;9.892;2022-09-27T02:41:01;98246.69;;;9.88;100.00
16694;BME280;39538;52.196;9.892;2022-09-27T02:43:30;98248.19;;;9.90;100.00
16694;BME280;39538;52.196;9.892;2022-09-27T02:46:06;98248.38;;;9.89;100.00
16694;BME280;39538;52.196;9.892;2022-09-27T02:48:48;98240.72;;;9.86;100.00
16694;BME280;39538;52.196;9.892;2022-09-27T02:51:29;98239.41;;;9.90;100.00
16694;BME280;39538;52.196;9.892;2022-09-27T02:54:09;98245.72;;;9.89;100.00
16694;BME280;39538;52.196;9.892;2022-09-27T02:56:46;98250.69;;;9.92;100.00
16694;BME280;39538;52.196;9.892;2022-09-27T02:59:28;98240.41;;;9.89;100.00
16694;BME280;39538;52.196;9.892;2022-09-27T03:02:04;98233.81;;;9.93;100.00
16694;BME280;39538;52.196;9.892;2022-09-27T03:04:35;98229.47;;;9.92;100.00
16694;BME280;39538;52.196;9.892;2022-09-27T03:07:03;98234.16;;;9.98;100.00
16694;BME280;39538;52.196;9.892;2022-09-27T03:09:40;98238.97;;;10.03;100.00
16694;BME280;39538;52.196;9.892;2022-09-27T03:12:06;98238.94;;;9.95;100.00
16694;BME280;39538;52.196;9.892;2022-09-27T03:14:33;98238.09;;;9.94;100.00
16694;BME280;39538;52.196;9.892;2022-09-27T03:17:00;98232.47;;;9.89;100.00
16694;BME280;39538;52.196;9.892;2022-09-27T03:19:27;98230.47;;;9.91;100.00
16694;BME280;39538;52.196;9.892;2022-09-27T03:21:55;98237.44;;;9.92;100.00
16694;BME280;39538;52.196;9.892;2022-09-27T03:24:21;98231.66;;;9.97;100.00
16694;BME280;39538;52.196;9.892;2022-09-27T03:26:48;98234.16;;;9.98;100.00
16694;BME280;39538;52.196;9.892;2022-09-27T03:29:15;98234.44;;;9.95;100.00
16694;BME280;39538;52.196;9.892;2022-09-27T03:31:42;98236.81;;;9.98;100.00
16694;BME280;39538;52.196;9.892;2022-09-27T03:34:08;98241.91;;;10.00;100.00
16694;BME280;39538;52.196;9.892;2022-09-27T03:36:34;98239.16;;;10.09;100.00
16694;BME280;39538;52.196;9.892;2022-09-27T03:39:02;98237.50;;;10.08;100.00
16694;BME280;39538;52.196;9.892;2022-09-27T03:41:29;98236.81;;;10.06;100.00
16694;BME280;39538;52.196;9.892;2022-09-27T03:43:55;98241.63;;;10.11;100.00
16694;BME280;39538;52.196;9.892;2022-09-27T03:46:24;98242.13;;;10.06;100.00
16694;BME280;39538;52.196;9.892;2022-09-27T03:48:50;98246.47;;;10.16;100.00
16694;BME280;39538;52.196;9.892;2022-09-27T03:51:17;98244.09;;;10.04;100.00
16694;BME280;39538;52.196;9.892;2022-09-27T03:53:44;98237.09;;;9.87;100.00
16694;BME280;39538;52.196;9.892;2022-09-27T03:56:12;98236.25;;;9.86;100.00
16694;BME280;39538;52.196;9.892;2022-09-27T03:58:39;98242.06;;;9.90;100.00
16694;BME280;39538;52.196;9.892;2022-09-27T04:01:05;98242.59;;;9.94;100.00
16694;BME280;39538;52.196;9.892;2022-09-27T04:03:32;98244.44;;;10.01;100.00
16694;BME280;39538;52.196;9.892;2022-09-27T04:06:00;98243.06;;;9.97;100.00
16694;BME280;39538;52.196;9.892;2022-09-27T04:08:26;98237.81;;;10.05;100.00
16694;BME280;39538;52.196;9.892;2022-09-27T04:10:54;98236.00;;;10.06;100.00
16694;BME280;39538;52.196;9.892;2022-09-27T04:13:22;98245.44;;;10.08;100.00
16694;BME280;39538;52.196;9.892;2022-09-27T04:15:48;98253.53;;;10.07;100.00
16694;BME280;39538;52.196;9.892;2022-09-27T04:18:15;98244.28;;;10.03;100.00
16694;BME280;39538;52.196;9.892;2022-09-27T04:20:41;98246.25;;;10.01;100.00
16694;BME280;39538;52.196;9.892;2022-09-27T04:23:08;98243.94;;;9.98;100.00
16694;BME280;39538;52.196;9.892;2022-09-27T04:25:34;98250.69;;;9.92;100.00
16694;BME280;39538;52.196;9.892;2022-09-27T04:28:01;98246.41;;;9.99;100.00
16694;BME280;39538;52.196;9.892;2022-09-27T04:30:29;98243.75;;;9.99;100.00
16694;BME280;39538;52.196;9.892;2022-09-27T04:32:55;98255.03;;;10.01;100.00
16694;BME280;39538;52.196;9.892;2022-09-27T04:35:22;98247.75;;;10.03;100.00
16694;BME280;39538;52.196;9.892;2022-09-27T04:38:06;98254.69;;;10.04;100.00
16694;BME280;39538;52.196;9.892;2022-09-27T04:40:33;98261.69;;;10.05;100.00
16694;BME280;39538;52.196;9.892;2022-09-27T04:43:00;98266.66;;;10.08;100.00
16694;BME280;39538;52.196;9.892;2022-09-27T04:45:30;98264.81;;;10.09;100.00
16694;BME280;39538;52.196;9.892;2022-09-27T04:47:56;98262.69;;;10.12;100.00
16694;BME280;39538;52.196;9.892;2022-09-27T04:50:23;98265.34;;;10.12;100.00
16694;BME280;39538;52.196;9.892;2022-09-27T04:52:50;98274.13;;;10.13;100.00
16694;BME280;39538;52.196;9.892;2022-09-27T04:55:18;98271.13;;;10.16;100.00
16694;BME280;39538;52.196;9.892;2022-09-27T04:57:44;98268.00;;;10.12;100.00
16694;BME280;39538;52.196;9.892;2022-09-27T05:00:12;98268.81;;;10.13;100.00
16694;BME280;39538;52.196;9.892;2022-09-27T05:02:41;98271.81;;;10.10;100.00
16694;BME280;39538;52.196;9.892;2022-09-27T05:05:07;98279.91;;;10.08;100.00
16694;BME280;39538;52.196;9.892;2022-09-27T05:07:34;98278.06;;;10.09;100.00
16694;BME280;39538;52.196;9.892;2022-09-27T05:10:02;98284.22;;;10.09;100.00
16694;BME280;39538;52.196;9.892;2022-09-27T05:12:29;98274.75;;;10.07;100.00
16694;BME280;39538;52.196;9.892;2022-09-27T05:14:55;98284.22;;;10.09;100.00
16694;BME280;39538;52.196;9.892;2022-09-27T05:17:22;98279.09;;;10.08;100.00
16694;BME280;39538;52.196;9.892;2022-09-27T05:19:50;98286.69;;;10.11;100.00
16694;BME280;39538;52.196;9.892;2022-09-27T05:22:16;98293.50;;;10.05;100.00
16694;BME280;39538;52.196;9.892;2022-09-27T05:24:44;98295.31;;;10.05;100.00
16694;BME280;39538;52.196;9.892;2022-09-27T05:27:12;98297.63;;;10.08;100.00
16694;BME280;39538;52.196;9.892;2022-09-27T05:29:42;98293.16;;;10.08;100.00
16694;BME280;39538;52.196;9.892;2022-09-27T05:32:09;98299.28;;;10.09;100.00
16694;BME280;39538;52.196;9.892;2022-09-27T05:34:35;98294.97;;;10.08;100.00
16694;BME280;39538;52.196;9.892;2022-09-27T05:37:03;98298.97;;;10.12;100.00
16694;BME280;39538;52.196;9.892;2022-09-27T05:39:29;98303.13;;;10.15;100.00
16694;BME280;39538;52.196;9.892;2022-09-27T05:41:56;98303.97;;;10.15;100.00
16694;BME280;39538;52.196;9.892;2022-09-27T05:44:22;98305.13;;;10.12;100.00
16694;BME280;39538;52.196;9.892;2022-09-27T05:46:50;98299.97;;;10.11;100.00
16694;BME280;39538;52.196;9.892;2022-09-27T05:49:16;98310.06;;;10.07;100.00
16694;BME280;39538;52.196;9.892;2022-09-27T05:51:43;98309.53;;;10.04;100.00
16694;BME280;39538;52.196;9.892;2022-09-27T05:54:11;98308.88;;;10.02;100.00
16694;BME280;39538;52.196;9.892;2022-09-27T05:56:37;98313.53;;;10.08;100.00
16694;BME280;39538;52.196;9.892;2022-09-27T05:59:04;98310.53;;;10.03;100.00
16694;BME280;39538;52.196;9.892;2022-09-27T06:01:30;98313.34;;;10.01;100.00
16694;BME280;39538;52.196;9.892;2022-09-27T06:03:57;98313.50;;;10.00;100.00
16694;BME280;39538;52.196;9.892;2022-09-27T06:06:23;98318.66;;;10.01;100.00
16694;BME280;39538;52.196;9.892;2022-09-27T06:08:49;98322.28;;;10.00;100.00
16694;BME280;39538;52.196;9.892;2022-09-27T06:11:17;98311.69;;;10.00;100.00
16694;BME280;39538;52.196;9.892;2022-09-27T06:13:44;98312.50;;;10.01;100.00
16694;BME280;39538;52.196;9.892;2022-09-27T06:16:11;98318.66;;;10.01;100.00
16694;BME280;39538;52.196;9.892;2022-09-27T06:18:37;98329.09;;;10.03;100.00
16694;BME280;39538;52.196;9.892;2022-09-27T06:21:05;98324.09;;;10.00;100.00
16694;BME280;39538;52.196;9.892;2022-09-27T06:23:32;98331.22;;;9.99;100.00
16694;BME280;39538;52.196;9.892;2022-09-27T06:26:00;98324.25;;;9.98;100.00
16694;BME280;39538;52.196;9.892;2022-09-27T06:28:28;98327.59;;;10.00;100.00
16694;BME280;39538;52.196;9.892;2022-09-27T06:30:54;98328.28;;;10.02;100.00
16694;BME280;39538;52.196;9.892;2022-09-27T06:33:21;98326.44;;;10.03;100.00
16694;BME280;39538;52.196;9.892;2022-09-27T06:35:47;98337.34;;;10.00;100.00
16694;BME280;39538;52.196;9.892;2022-09-27T06:38:16;98339.84;;;10.01;100.00
16694;BME280;39538;52.196;9.892;2022-09-27T06:40:43;98343.50;;;10.00;100.00
16694;BME280;39538;52.196;9.892;2022-09-27T06:43:12;98343.50;;;10.00;100.00
16694;BME280;39538;52.196;9.892;2022-09-27T06:45:40;98347.81;;;10.01;100.00
16694;BME280;39538;52.196;9.892;2022-09-27T06:48:08;98359.06;;;10.03;100.00
16694;BME280;39538;52.196;9.892;2022-09-27T06:50:38;98353.25;;;10.00;100.00
16694;BME280;39538;52.196;9.892;2022-09-27T06:53:06;98360.06;;;10.02;100.00
16694;BME280;39538;52.196;9.892;2022-09-27T06:55:33;98363.09;;;10.07;100.00
16694;BME280;39538;52.196;9.892;2022-09-27T06:58:00;98366.34;;;10.01;100.00
16694;BME280;39538;52.196;9.892;2022-09-27T07:00:47;98363.56;;;10.03;100.00
16694;BME280;39538;52.196;9.892;2022-09-27T07:03:14;98367.84;;;10.04;100.00
16694;BME280;39538;52.196;9.892;2022-09-27T07:05:41;98361.59;;;10.05;100.00
16694;BME280;39538;52.196;9.892;2022-09-27T07:08:08;98377.63;;;10.03;100.00
16694;BME280;39538;52.196;9.892;2022-09-27T07:10:36;98375.66;;;10.05;100.00
16694;BME280;39538;52.196;9.892;2022-09-27T07:13:03;98377.31;;;10.06;100.00
16694;BME280;39538;52.196;9.892;2022-09-27T07:15:31;98383.28;;;10.08;100.00
16694;BME280;39538;52.196;9.892;2022-09-27T07:18:03;98376.00;;;10.10;100.00
16694;BME280;39538;52.196;9.892;2022-09-27T07:20:30;98384.50;;;10.14;100.00
16694;BME280;39538;52.196;9.892;2022-09-27T07:22:57;98390.63;;;10.15;100.00
16694;BME280;39538;52.196;9.892;2022-09-27T07:25:24;98393.41;;;10.13;100.00
16694;BME280;39538;52.196;9.892;2022-09-27T07:27:51;98395.25;;;10.12;100.00
16694;BME280;39538;52.196;9.892;2022-09-27T07:30:19;98396.69;;;10.07;100.00
16694;BME280;39538;52.196;9.892;2022-09-27T07:32:46;98398.69;;;10.05;100.00
16694;BME280;39538;52.196;9.892;2022-09-27T07:35:14;98405.16;;;10.02;100.00
16694;BME280;39538;52.196;9.892;2022-09-27T07:37:41;98404.81;;;10.05;100.00
16694;BME280;39538;52.196;9.892;2022-09-27T07:40:09;98407.94;;;10.01;100.00
16694;BME280;39538;52.196;9.892;2022-09-27T07:42:36;98407.63;;;10.04;100.00
16694;BME280;39538;52.196;9.892;2022-09-27T07:45:04;98416.03;;;9.99;100.00
16694;BME280;39538;52.196;9.892;2022-09-27T07:47:31;98410.72;;;9.99;100.00
16694;BME280;39538;52.196;9.892;2022-09-27T07:49:58;98421.34;;;9.99;100.00
16694;BME280;39538;52.196;9.892;2022-09-27T07:52:26;98424.34;;;10.04;100.00
16694;BME280;39538;52.196;9.892;2022-09-27T07:54:52;98430.50;;;10.05;100.00
16694;BME280;39538;52.196;9.892;2022-09-27T07:57:22;98423.53;;;10.04;100.00
16694;BME280;39538;52.196;9.892;2022-09-27T07:59:48;98436.31;;;10.08;100.00
16694;BME280;39538;52.196;9.892;2022-09-27T08:02:16;98439.63;;;10.10;100.00
16694;BME280;39538;52.196;9.892;2022-09-27T08:04:42;98434.81;;;10.06;100.00
16694;BME280;39538;52.196;9.892;2022-09-27T08:07:11;98448.59;;;10.09;100.00
16694;BME280;39538;52.196;9.892;2022-09-27T08:09:39;98452.75;;;10.12;100.00
16694;BME280;39538;52.196;9.892;2022-09-27T08:12:05;98455.53;;;10.10;100.00
16694;BME280;39538;52.196;9.892;2022-09-27T08:14:32;98452.22;;;10.08;100.00
16694;BME280;39538;52.196;9.892;2022-09-27T08:16:59;98446.78;;;10.10;100.00
16694;BME280;39538;52.196;9.892;2022-09-27T08:19:25;98462.00;;;10.08;100.00
16694;BME280;39538;52.196;9.892;2022-09-27T08:21:52;98462.97;;;10.07;100.00
16694;BME280;39538;52.196;9.892;2022-09-27T08:24:19;98456.84;;;10.06;100.00
16694;BME280;39538;52.196;9.892;2022-09-27T08:26:47;98474.09;;;10.10;100.00
16694;BME280;39538;52.196;9.892;2022-09-27T08:29:14;98470.16;;;10.15;100.00
16694;BME280;39538;52.196;9.892;2022-09-27T08:31:40;98478.34;;;10.21;100.00
16694;BME280;39538;52.196;9.892;2022-09-27T08:34:07;98477.88;;;10.26;100.00
16694;BME280;39538;52.196;9.892;2022-09-27T08:36:33;98470.72;;;10.26;100.00
16694;BME280;39538;52.196;9.892;2022-09-27T08:39:02;98481.59;;;10.33;100.00
16694;BME280;39538;52.196;9.892;2022-09-27T08:41:33;98486.56;;;10.36;100.00
16694;BME280;39538;52.196;9.892;2022-09-27T08:44:15;98494.88;;;10.41;100.00
16694;BME280;39538;52.196;9.892;2022-09-27T08:46:52;98483.00;;;10.53;100.00
16694;BME280;39538;52.196;9.892;2022-09-27T08:49:28;98496.69;;;10.67;100.00
16694;BME280;39538;52.196;9.892;2022-09-27T08:51:58;98495.88;;;10.74;100.00
16694;BME280;39538;52.196;9.892;2022-09-27T08:54:29;98496.06;;;10.81;100.00
16694;BME280;39538;52.196;9.892;2022-09-27T08:57:00;98501.03;;;10.76;100.00
16694;BME280;39538;52.196;9.892;2022-09-27T08:59:30;98504.84;;;10.73;100.00
16694;BME280;39538;52.196;9.892;2022-09-27T09:01:59;98500.88;;;10.78;100.00
16694;BME280;39538;52.196;9.892;2022-09-27T09:04:34;98507.56;;;10.90;100.00
16694;BME280;39538;52.196;9.892;2022-09-27T09:07:08;98506.28;;;10.94;100.00
16694;BME280;39538;52.196;9.892;2022-09-27T09:09:44;98514.72;;;10.97;100.00
16694;BME280;39538;52.196;9.892;2022-09-27T09:12:23;98510.09;;;11.00;100.00
16694;BME280;39538;52.196;9.892;2022-09-27T09:15:20;98512.28;;;11.04;100.00
16694;BME280;39538;52.196;9.892;2022-09-27T09:17:57;98518.09;;;11.08;100.00
16694;BME280;39538;52.196;9.892;2022-09-27T09:20:33;98517.44;;;11.14;100.00
16694;BME280;39538;52.196;9.892;2022-09-27T09:23:18;98514.16;;;11.12;100.00
16694;BME280;39538;52.196;9.892;2022-09-27T09:25:56;98526.75;;;11.10;100.00
16694;BME280;39538;52.196;9.892;2022-09-27T09:28:36;98527.44;;;11.20;100.00
16694;BME280;39538;52.196;9.892;2022-09-27T09:31:13;98536.94;;;11.31;99.99
16694;BME280;39538;52.196;9.892;2022-09-27T09:33:47;98529.00;;;11.39;99.23
16694;BME280;39538;52.196;9.892;2022-09-27T09:36:22;98527.53;;;11.53;97.58
16694;BME280;39538;52.196;9.892;2022-09-27T09:38:51;98522.56;;;11.58;96.24
16694;BME280;39538;52.196;9.892;2022-09-27T09:41:23;98527.56;;;11.69;93.99
16694;BME280;39538;52.196;9.892;2022-09-27T09:43:55;98533.19;;;11.74;94.34
16694;BME280;39538;52.196;9.892;2022-09-27T09:46:29;98527.41;;;11.71;93.27
16694;BME280;39538;52.196;9.892;2022-09-27T09:49:01;98526.25;;;11.73;93.54
16694;BME280;39538;52.196;9.892;2022-09-27T09:51:34;98532.88;;;11.86;92.98
16694;BME280;39538;52.196;9.892;2022-09-27T09:54:06;98523.28;;;11.93;92.21
16694;BME280;39538;52.196;9.892;2022-09-27T09:56:39;98524.63;;;12.05;90.93
16694;BME280;39538;52.196;9.892;2022-09-27T09:59:13;98528.56;;;12.42;89.58
16694;BME280;39538;52.196;9.892;2022-09-27T10:01:43;98522.16;;;12.84;89.48
16694;BME280;39538;52.196;9.892;2022-09-27T10:04:14;98522.38;;;13.14;86.36
16694;BME280;39538;52.196;9.892;2022-09-27T10:06:44;98514.38;;;13.22;84.25
16694;BME280;39538;52.196;9.892;2022-09-27T10:09:11;98513.16;;;13.64;83.99
16694;BME280;39538;52.196;9.892;2022-09-27T10:11:41;98510.78;;;14.68;82.96
16694;BME280;39538;52.196;9.892;2022-09-27T10:14:10;98515.44;;;15.10;77.15
16694;BME280;39538;52.196;9.892;2022-09-27T10:16:38;98517.44;;;15.38;74.22
16694;BME280;39538;52.196;9.892;2022-09-27T10:19:08;98512.88;;;16.39;71.79
16694;BME280;39538;52.196;9.892;2022-09-27T10:21:39;98518.53;;;17.14;69.59
16694;BME280;39538;52.196;9.892;2022-09-27T10:24:09;98517.59;;;18.30;65.84
16694;BME280;39538;52.196;9.892;2022-09-27T10:26:37;98520.78;;;19.12;61.88
16694;BME280;39538;52.196;9.892;2022-09-27T10:29:22;98524.16;;;19.91;57.19
16694;BME280;39538;52.196;9.892;2022-09-27T10:31:50;98522.22;;;20.48;55.30
16694;BME280;39538;52.196;9.892;2022-09-27T10:34:25;98523.88;;;20.74;53.41
16694;BME280;39538;52.196;9.892;2022-09-27T10:37:13;98529.84;;;21.01;51.46
16694;BME280;39538;52.196;9.892;2022-09-27T10:39:42;98529.38;;;21.41;50.65
16694;BME280;39538;52.196;9.892;2022-09-27T10:42:29;98536.66;;;21.22;49.81
16694;BME280;39538;52.196;9.892;2022-09-27T10:44:56;98537.28;;;20.62;50.94
16694;BME280;39538;52.196;9.892;2022-09-27T10:47:24;98529.31;;;19.86;51.14
16694;BME280;39538;52.196;9.892;2022-09-27T10:50:02;98534.03;;;19.07;53.43
16694;BME280;39538;52.196;9.892;2022-09-27T10:52:29;98528.03;;;19.05;55.58
16694;BME280;39538;52.196;9.892;2022-09-27T10:54:57;98530.81;;;19.36;54.38
16694;BME280;39538;52.196;9.892;2022-09-27T10:57:25;98530.56;;;19.45;53.90
16694;BME280;39538;52.196;9.892;2022-09-27T10:59:55;98533.94;;;20.10;52.08
16694;BME280;39538;52.196;9.892;2022-09-27T11:02:25;98527.25;;;20.70;51.44
16694;BME280;39538;52.196;9.892;2022-09-27T11:05:09;98529.97;;;21.07;48.44
16694;BME280;39538;52.196;9.892;2022-09-27T11:07:46;98536.31;;;20.50;49.91
16694;BME280;39538;52.196;9.892;2022-09-27T11:10:22;98534.31;;;19.89;51.62
16694;BME280;39538;52.196;9.892;2022-09-27T11:13:08;98532.53;;;19.17;51.82
16694;BME280;39538;52.196;9.892;2022-09-27T11:15:43;98527.06;;;18.86;53.02
16694;BME280;39538;52.196;9.892;2022-09-27T11:18:20;98539.06;;;18.30;53.80
16694;BME280;39538;52.196;9.892;2022-09-27T11:20:56;98533.63;;;17.90;54.41
16694;BME280;39538;52.196;9.892;2022-09-27T11:23:38;98530.22;;;17.55;56.49
16694;BME280;39538;52.196;9.892;2022-09-27T11:26:21;98530.03;;;17.08;56.56
16694;BME280;39538;52.196;9.892;2022-09-27T11:28:56;98529.25;;;16.79;58.43
16694;BME280;39538;52.196;9.892;2022-09-27T11:31:42;98526.97;;;16.48;59.20
16694;BME280;39538;52.196;9.892;2022-09-27T11:34:29;98542.56;;;16.16;62.48
16694;BME280;39538;52.196;9.892;2022-09-27T11:37:11;98543.00;;;15.98;62.67
16694;BME280;39538;52.196;9.892;2022-09-27T11:39:49;98539.25;;;15.71;63.50
16694;BME280;39538;52.196;9.892;2022-09-27T11:45:24;98552.47;;;15.43;64.63
16694;BME280;39538;52.196;9.892;2022-09-27T11:48:02;98559.84;;;15.92;63.39
16694;BME280;39538;52.196;9.892;2022-09-27T11:50:54;98553.47;;;16.71;60.08
16694;BME280;39538;52.196;9.892;2022-09-27T11:53:34;98555.28;;;17.20;56.73
16694;BME280;39538;52.196;9.892;2022-09-27T11:56:10;98565.31;;;17.53;55.37
16694;BME280;39538;52.196;9.892;2022-09-27T11:59:01;98565.00;;;17.83;53.56
16694;BME280;39538;52.196;9.892;2022-09-27T12:01:34;98573.63;;;17.78;52.52
16694;BME280;39538;52.196;9.892;2022-09-27T12:04:27;98569.97;;;17.38;54.70
16694;BME280;39538;52.196;9.892;2022-09-27T12:07:03;98569.97;;;16.96;55.60
16694;BME280;39538;52.196;9.892;2022-09-27T12:09:38;98570.53;;;16.14;58.22
16694;BME280;39538;52.196;9.892;2022-09-27T12:12:11;98578.19;;;15.95;58.96
16694;BME280;39538;52.196;9.892;2022-09-27T12:14:41;98582.09;;;15.78;60.65
16694;BME280;39538;52.196;9.892;2022-09-27T12:17:13;98583.88;;;15.71;60.46
16694;BME280;39538;52.196;9.892;2022-09-27T12:19:43;98579.34;;;15.56;61.67
16694;BME280;39538;52.196;9.892;2022-09-27T12:22:14;98579.91;;;15.67;61.03
16694;BME280;39538;52.196;9.892;2022-09-27T12:24:44;98574.59;;;15.88;61.26
16694;BME280;39538;52.196;9.892;2022-09-27T12:27:14;98566.97;;;15.85;60.87
16694;BME280;39538;52.196;9.892;2022-09-27T12:29:44;98572.50;;;16.05;60.45
16694;BME280;39538;52.196;9.892;2022-09-27T12:32:15;98571.44;;;15.99;61.45
16694;BME280;39538;52.196;9.892;2022-09-27T12:34:46;98575.66;;;16.09;57.67
16694;BME280;39538;52.196;9.892;2022-09-27T12:37:18;98580.84;;;15.74;59.99
16694;BME280;39538;52.196;9.892;2022-09-27T12:39:51;98574.28;;;16.19;59.51
16694;BME280;39538;52.196;9.892;2022-09-27T12:42:22;98576.50;;;16.87;58.54
16694;BME280;39538;52.196;9.892;2022-09-27T12:44:50;98596.00;;;17.02;54.99
16694;BME280;39538;52.196;9.892;2022-09-27T12:47:34;98606.84;;;16.94;54.33
16694;BME280;39538;52.196;9.892;2022-09-27T12:50:10;98606.22;;;16.92;55.61
16694;BME280;39538;52.196;9.892;2022-09-27T12:52:42;98606.19;;;16.85;57.09
16694;BME280;39538;52.196;9.892;2022-09-27T12:55:29;98605.56;;;16.62;56.46
16694;BME280;39538;52.196;9.892;2022-09-27T12:58:33;98614.66;;;16.68;56.88
16694;BME280;39538;52.196;9.892;2022-09-27T13:01:11;98610.81;;;16.27;57.69
16694;BME280;39538;52.196;9.892;2022-09-27T13:04:07;98613.19;;;16.15;57.54
16694;BME280;39538;52.196;9.892;2022-09-27T13:06:52;98608.75;;;15.86;57.46
16694;BME280;39538;52.196;9.892;2022-09-27T13:09:54;98601.59;;;15.42;60.01
16694;BME280;39538;52.196;9.892;2022-09-27T13:12:29;98608.22;;;15.31;60.08
16694;BME280;39538;52.196;9.892;2022-09-27T13:15:00;98606.22;;;15.18;60.58
16694;BME280;39538;52.196;9.892;2022-09-27T13:17:32;98610.81;;;14.95;61.73
16694;BME280;39538;52.196;9.892;2022-09-27T13:20:35;98603.91;;;14.86;61.89
16694;BME280;39538;52.196;9.892;2022-09-27T13:23:04;98618.75;;;14.88;62.22